createdAt,value
2023-01-30T00:01:10.242Z,98904.13
2023-01-30T00:03:42.196Z,98902.45
2023-01-30T00:06:14.701Z,98900.83
2023-01-30T00:08:46.840Z,98894.84
2023-01-30T00:11:21.032Z,98894.74
2023-01-30T00:13:53.530Z,98895.53
2023-01-30T00:16:25.580Z,98901.66
2023-01-30T00:18:57.581Z,98895.64
2023-01-30T00:21:29.865Z,98883.73
2023-01-30T00:24:02.059Z,98876.89
2023-01-30T00:26:34.241Z,98881.98
2023-01-30T00:29:06.318Z,98876.83
2023-01-30T00:31:38.265Z,98872.45
2023-01-30T00:34:10.374Z,98862.86
2023-01-30T00:36:43.060Z,98864.58
2023-01-30T00:39:15.081Z,98856.73
2023-01-30T00:42:06.849Z,98854.23
2023-01-30T00:44:56.549Z,98850.75
2023-01-30T00:47:28.481Z,98847.31
2023-01-30T00:50:00.467Z,98849.00
2023-01-30T00:52:33.069Z,98845.55
2023-01-30T00:55:05.970Z,98845.55
2023-01-30T00:57:38.094Z,98840.30
2023-01-30T01:00:11.173Z,98844.59
2023-01-30T01:02:44.935Z,98840.14
2023-01-30T01:05:17.604Z,98836.67
2023-01-30T01:07:50.228Z,98840.19
2023-01-30T01:10:22.725Z,98826.35
2023-01-30T01:12:55.178Z,98826.35
2023-01-30T01:15:28.009Z,98830.58
2023-01-30T01:18:00.092Z,98822.02
2023-01-30T01:20:32.435Z,98822.80
2023-01-30T01:23:04.478Z,98826.31
2023-01-30T01:25:36.543Z,98822.09
2023-01-30T01:28:10.118Z,98822.02
2023-01-30T01:30:42.046Z,98814.34
2023-01-30T01:33:15.054Z,98822.73
2023-01-30T01:35:47.987Z,98820.44
2023-01-30T01:38:20.481Z,98814.60
2023-01-30T01:41:05.944Z,98805.08
2023-01-30T01:43:41.893Z,98791.34
2023-01-30T01:46:19.851Z,98777.70
2023-01-30T01:48:54.617Z,98775.13
2023-01-30T01:51:35.364Z,98765.63
2023-01-30T01:54:19.526Z,98756.95
2023-01-30T01:56:51.631Z,98756.92
2023-01-30T01:59:28.905Z,98757.32
2023-01-30T02:02:04.454Z,98749.26
2023-01-30T02:04:55.830Z,98747.65
2023-01-30T02:07:29.582Z,98736.63
2023-01-30T02:10:02.457Z,98740.09
2023-01-30T02:12:34.692Z,98736.66
2023-01-30T02:15:07.429Z,98734.98
2023-01-30T02:17:42.096Z,98731.50
2023-01-30T02:20:26.050Z,98730.64
2023-01-30T02:23:12.830Z,98736.66
2023-01-30T02:26:08.289Z,98731.38
2023-01-30T02:28:51.914Z,98717.55
2023-01-30T02:31:49.037Z,98720.37
2023-01-30T02:34:28.392Z,98720.37
2023-01-30T02:37:15.132Z,98710.05
2023-01-30T02:39:50.614Z,98703.13
2023-01-30T02:42:28.301Z,98693.60
2023-01-30T02:45:21.330Z,98696.33
2023-01-30T02:48:08.052Z,98698.02
2023-01-30T02:50:48.316Z,98692.89
2023-01-30T02:53:20.510Z,98684.27
2023-01-30T02:55:52.757Z,98687.73
2023-01-30T02:58:27.928Z,98670.50
2023-01-30T03:01:23.892Z,98673.08
2023-01-30T03:04:19.820Z,98675.73
2023-01-30T03:07:11.470Z,98681.64
2023-01-30T03:09:46.481Z,98673.83
2023-01-30T03:12:32.127Z,98660.93
2023-01-30T03:15:12.835Z,98646.31
2023-01-30T03:17:48.418Z,98638.62
2023-01-30T03:20:22.387Z,98640.34
2023-01-30T03:22:55.702Z,98637.77
2023-01-30T03:25:29.177Z,98635.52
2023-01-30T03:28:03.664Z,98635.06
2023-01-30T03:30:36.478Z,98620.52
2023-01-30T03:33:10.541Z,98627.36
2023-01-30T03:35:43.787Z,98618.64
2023-01-30T03:38:18.386Z,98614.27
2023-01-30T03:40:51.010Z,98606.53
2023-01-30T03:43:23.135Z,98617.50
2023-01-30T03:45:56.464Z,98615.94
2023-01-30T03:48:28.927Z,98601.28
2023-01-30T03:51:01.132Z,98593.50
2023-01-30T03:53:33.577Z,98597.81
2023-01-30T03:56:06.212Z,98604.68
2023-01-30T03:58:39.413Z,98591.78
2023-01-30T04:01:16.054Z,98582.24
2023-01-30T04:03:48.746Z,98579.70
2023-01-30T04:06:21.208Z,98573.81
2023-01-30T04:08:56.777Z,98560.06
2023-01-30T04:11:33.488Z,98558.25
2023-01-30T04:14:05.850Z,98558.94
2023-01-30T04:16:40.082Z,98554.56
2023-01-30T04:19:17.307Z,98557.09
2023-01-30T04:21:50.212Z,98550.91
2023-01-30T04:24:23.228Z,98546.78
2023-01-30T04:26:55.697Z,98545.05
2023-01-30T04:29:29.798Z,98544.16
2023-01-30T04:32:03.514Z,98538.22
2023-01-30T04:34:37.752Z,98542.47
2023-01-30T04:37:11.698Z,98535.47
2023-01-30T04:39:44.577Z,98537.22
2023-01-30T04:42:17.173Z,98533.92
2023-01-30T04:44:51.295Z,98536.55
2023-01-30T04:47:24.942Z,98523.64
2023-01-30T04:49:57.008Z,98517.95
2023-01-30T04:52:29.827Z,98507.17
2023-01-30T04:55:03.150Z,98504.67
2023-01-30T04:57:36.815Z,98507.17
2023-01-30T05:00:10.207Z,98501.97
2023-01-30T05:02:44.284Z,98495.05
2023-01-30T05:05:17.425Z,98497.63
2023-01-30T05:07:50.763Z,98486.45
2023-01-30T05:10:23.764Z,98484.86
2023-01-30T05:12:56.830Z,98491.82
2023-01-30T05:15:29.034Z,98482.33
2023-01-30T05:18:02.275Z,98473.81
2023-01-30T05:20:34.806Z,98470.28
2023-01-30T05:23:06.974Z,98466.75
2023-01-30T05:25:39.349Z,98462.41
2023-01-30T05:28:12.035Z,98457.29
2023-01-30T05:30:46.326Z,98451.95
2023-01-30T05:33:19.583Z,98444.22
2023-01-30T05:35:53.282Z,98444.13
2023-01-30T05:38:27.028Z,98450.96
2023-01-30T05:41:09.633Z,98443.80
2023-01-30T05:43:42.171Z,98444.03
2023-01-30T05:46:14.937Z,98439.59
2023-01-30T05:48:47.637Z,98432.80
2023-01-30T05:51:23.441Z,98425.16
2023-01-30T05:53:55.802Z,98434.66
2023-01-30T05:56:30.882Z,98431.17
2023-01-30T05:59:03.943Z,98416.52
2023-01-30T06:01:36.353Z,98413.84
2023-01-30T06:04:09.452Z,98408.63
2023-01-30T06:06:41.928Z,98412.84
2023-01-30T06:09:14.297Z,98409.35
2023-01-30T06:11:46.505Z,98411.02
2023-01-30T06:14:19.077Z,98412.59
2023-01-30T06:16:51.995Z,98412.27
2023-01-30T06:19:25.312Z,98399.45
2023-01-30T06:21:57.853Z,98399.23
2023-01-30T06:24:32.956Z,98394.97
2023-01-30T06:27:06.836Z,98397.50
2023-01-30T06:29:44.267Z,98406.05
2023-01-30T06:32:16.079Z,98397.73
2023-01-30T06:34:48.191Z,98403.33
2023-01-30T06:37:20.564Z,98396.49
2023-01-30T06:39:53.274Z,98404.86
2023-01-30T06:42:25.731Z,98386.84
2023-01-30T06:44:57.943Z,98397.06
2023-01-30T06:47:30.600Z,98384.81
2023-01-30T06:50:03.126Z,98393.58
2023-01-30T06:52:35.315Z,98390.27
2023-01-30T06:55:08.468Z,98381.72
2023-01-30T06:57:41.189Z,98394.63
2023-01-30T07:00:19.772Z,98386.73
2023-01-30T07:02:52.313Z,98390.98
2023-01-30T07:05:24.525Z,98389.60
2023-01-30T07:07:57.220Z,98386.45
2023-01-30T07:10:31.651Z,98380.09
2023-01-30T07:13:05.132Z,98383.87
2023-01-30T07:15:38.196Z,98376.17
2023-01-30T07:18:10.797Z,98365.85
2023-01-30T07:20:43.617Z,98367.52
2023-01-30T07:23:15.922Z,98367.33
2023-01-30T07:25:48.198Z,98365.46
2023-01-30T07:28:21.053Z,98367.09
2023-01-30T07:30:53.713Z,98351.49
2023-01-30T07:33:26.040Z,98348.81
2023-01-30T07:36:00.208Z,98343.56
2023-01-30T07:38:32.669Z,98343.45
2023-01-30T07:41:04.944Z,98338.28
2023-01-30T07:43:36.947Z,98336.51
2023-01-30T07:46:09.157Z,98344.06
2023-01-30T07:48:41.717Z,98330.13
2023-01-30T07:51:14.180Z,98327.39
2023-01-30T07:53:48.386Z,98322.22
2023-01-30T07:56:23.202Z,98320.41
2023-01-30T07:58:56.959Z,98321.20
2023-01-30T08:01:29.629Z,98314.88
2023-01-30T08:04:02.120Z,98309.55
2023-01-30T08:06:36.224Z,98309.50
2023-01-30T08:09:08.992Z,98307.67
2023-01-30T08:11:40.992Z,98303.36
2023-01-30T08:14:13.181Z,98295.50
2023-01-30T08:16:45.736Z,98294.53
2023-01-30T08:19:18.343Z,98291.75
2023-01-30T08:21:50.619Z,98295.08
2023-01-30T08:24:23.162Z,98290.55
2023-01-30T08:26:55.240Z,98279.57
2023-01-30T08:29:27.586Z,98276.87
2023-01-30T08:32:03.429Z,98269.17
2023-01-30T08:34:36.658Z,98269.23
2023-01-30T08:37:09.308Z,98266.00
2023-01-30T08:39:42.157Z,98261.77
2023-01-30T08:42:16.857Z,98254.87
2023-01-30T08:44:50.580Z,98249.64
2023-01-30T08:47:22.609Z,98262.50
2023-01-30T08:49:54.851Z,98254.70
2023-01-30T08:52:27.245Z,98257.13
2023-01-30T08:54:59.555Z,98250.94
2023-01-30T08:57:33.681Z,98240.54
2023-01-30T09:00:07.050Z,98242.09
2023-01-30T09:02:39.543Z,98233.37
2023-01-30T09:05:12.073Z,98230.61
2023-01-30T09:07:44.398Z,98227.97
2023-01-30T09:10:17.505Z,98233.78
2023-01-30T09:12:50.464Z,98225.17
2023-01-30T09:15:22.613Z,98225.91
2023-01-30T09:17:55.173Z,98229.25
2023-01-30T09:20:27.917Z,98224.87
2023-01-30T09:23:00.665Z,98219.70
2023-01-30T09:25:33.204Z,98217.87
2023-01-30T09:28:05.552Z,98212.76
2023-01-30T09:30:37.872Z,98198.95
2023-01-30T09:33:10.778Z,98196.37
2023-01-30T09:35:43.966Z,98187.63
2023-01-30T09:38:17.444Z,98189.31
2023-01-30T09:40:55.631Z,98180.64
2023-01-30T09:43:42.188Z,98172.88
2023-01-30T09:46:34.732Z,98176.31
2023-01-30T09:49:26.504Z,98161.56
2023-01-30T09:52:16.856Z,98158.00
2023-01-30T09:54:49.847Z,98163.17
2023-01-30T09:57:27.373Z,98159.70
2023-01-30T10:00:29.636Z,98154.66
2023-01-30T10:03:13.725Z,98152.98
2023-01-30T10:06:03.950Z,98145.16
2023-01-30T10:08:42.670Z,98133.97
2023-01-30T10:11:50.853Z,98138.95
2023-01-30T10:14:41.073Z,98126.21
2023-01-30T10:17:25.026Z,98134.73
2023-01-30T10:20:02.492Z,98122.65
2023-01-30T10:22:46.814Z,98118.45
2023-01-30T10:25:43.645Z,98121.05
2023-01-30T10:28:27.458Z,98113.91
2023-01-30T10:31:08.632Z,98112.87
2023-01-30T10:34:01.665Z,98111.76
2023-01-30T10:36:45.589Z,98105.19
2023-01-30T10:39:31.229Z,98109.80
2023-01-30T10:42:15.187Z,98095.33
2023-01-30T10:44:49.007Z,98092.55
2023-01-30T10:47:29.776Z,98077.94
2023-01-30T10:50:20.108Z,98088.48
2023-01-30T10:53:02.153Z,98082.45
2023-01-30T10:55:40.126Z,98072.11
2023-01-30T10:58:15.215Z,98074.56
2023-01-30T11:01:02.182Z,98075.26
2023-01-30T11:03:59.511Z,98072.60
2023-01-30T11:06:33.889Z,98065.77
2023-01-30T11:09:06.143Z,98057.25
2023-01-30T11:11:55.406Z,98063.23
2023-01-30T11:14:27.990Z,98056.27
2023-01-30T11:17:02.682Z,98045.27
2023-01-30T11:19:37.691Z,98052.34
2023-01-30T11:22:13.067Z,98045.56
2023-01-30T11:24:47.217Z,98045.50
2023-01-30T11:27:22.634Z,98035.22
2023-01-30T11:30:06.775Z,98037.05
2023-01-30T11:32:39.134Z,98032.02
2023-01-30T11:35:17.423Z,98024.32
2023-01-30T11:37:51.665Z,98022.78
2023-01-30T11:40:30.983Z,98025.50
2023-01-30T11:43:08.925Z,98013.55
2023-01-30T11:45:46.875Z,98023.14
2023-01-30T11:48:32.955Z,98017.19
2023-01-30T11:51:04.711Z,98009.44
2023-01-30T11:53:40.143Z,98014.60
2023-01-30T11:56:21.745Z,98020.56
2023-01-30T11:59:00.464Z,98011.89
2023-01-30T12:01:35.812Z,98008.39
2023-01-30T12:04:10.972Z,98006.58
2023-01-30T12:06:45.276Z,97997.84
2023-01-30T12:09:39.956Z,97997.67
2023-01-30T12:12:34.220Z,97983.08
2023-01-30T12:15:18.760Z,97998.59
2023-01-30T12:18:17.047Z,97984.75
2023-01-30T12:21:06.951Z,97974.34
2023-01-30T12:24:10.387Z,97980.43
2023-01-30T12:26:51.039Z,97979.58
2023-01-30T12:29:34.678Z,97980.61
2023-01-30T12:32:19.041Z,97976.86
2023-01-30T12:34:52.807Z,97974.34
2023-01-30T12:37:46.994Z,97968.62
2023-01-30T12:40:54.423Z,97961.78
2023-01-30T12:43:47.524Z,97962.90
2023-01-30T12:46:37.287Z,97955.38
2023-01-30T12:49:24.297Z,97956.19
2023-01-30T12:52:08.416Z,97952.79
2023-01-30T12:54:47.647Z,97950.20
2023-01-30T12:57:25.543Z,97954.94
2023-01-30T13:00:09.774Z,97946.84
2023-01-30T13:02:48.043Z,97945.37
2023-01-30T13:05:38.341Z,97936.80
2023-01-30T13:08:31.726Z,97928.56
2023-01-30T13:11:24.746Z,97932.81
2023-01-30T13:13:59.907Z,97936.37
2023-01-30T13:16:36.758Z,97926.86
2023-01-30T13:19:40.410Z,97931.14
2023-01-30T13:22:23.117Z,97926.52
2023-01-30T13:25:23.632Z,97922.23
2023-01-30T13:27:59.201Z,97913.05
2023-01-30T13:30:34.118Z,97915.77
2023-01-30T13:33:12.562Z,97914.23
2023-01-30T13:35:48.002Z,97908.28
2023-01-30T13:38:23.958Z,97906.62
2023-01-30T13:40:59.999Z,97893.77
2023-01-30T13:43:35.655Z,97897.27
2023-01-30T13:46:13.828Z,97895.53
2023-01-30T13:48:54.804Z,97903.41
2023-01-30T13:51:55.414Z,97894.61
2023-01-30T13:54:33.358Z,97896.58
2023-01-30T13:57:34.236Z,97895.80
2023-01-30T14:00:25.445Z,97888.11
2023-01-30T14:03:09.320Z,97900.05
2023-01-30T14:06:00.974Z,97886.38
2023-01-30T14:08:35.888Z,97896.03
2023-01-30T14:11:25.704Z,97901.12
2023-01-30T14:14:00.765Z,97891.67
2023-01-30T14:16:44.438Z,97886.51
2023-01-30T14:19:41.715Z,97887.42
2023-01-30T14:22:36.000Z,97893.93
2023-01-30T14:25:28.053Z,97888.59
2023-01-30T14:28:08.664Z,97883.09
2023-01-30T14:30:52.935Z,97882.74
2023-01-30T14:33:29.889Z,97884.71
2023-01-30T14:36:10.850Z,97876.22
2023-01-30T14:38:44.970Z,97868.23
2023-01-30T14:41:28.782Z,97863.88
2023-01-30T14:44:01.465Z,97865.71
2023-01-30T14:46:54.221Z,97878.49
2023-01-30T14:49:22.917Z,97877.71
2023-01-30T14:51:56.403Z,97869.14
2023-01-30T14:54:41.185Z,97866.26
2023-01-30T14:57:21.085Z,97863.74
2023-01-30T15:00:14.986Z,97867.31
2023-01-30T15:02:36.659Z,97861.39
2023-01-30T15:05:18.075Z,97856.91
2023-01-30T15:08:08.079Z,97867.99
2023-01-30T15:11:05.794Z,97855.17
2023-01-30T15:13:57.334Z,97864.36
2023-01-30T15:16:35.516Z,97855.17
2023-01-30T15:19:20.226Z,97864.52
2023-01-30T15:21:59.090Z,97846.44
2023-01-30T15:24:52.903Z,97852.02
2023-01-30T15:27:29.183Z,97857.52
2023-01-30T15:30:22.903Z,97857.59
2023-01-30T15:33:17.695Z,97850.83
2023-01-30T15:35:48.337Z,97854.88
2023-01-30T15:38:32.901Z,97845.45
2023-01-30T15:41:05.640Z,97858.14
2023-01-30T15:43:49.604Z,97855.05
2023-01-30T15:46:36.484Z,97857.94
2023-01-30T15:49:26.359Z,97849.33
2023-01-30T15:52:04.992Z,97836.58
2023-01-30T15:54:38.225Z,97833.22
2023-01-30T15:57:13.450Z,97846.00
2023-01-30T15:59:45.917Z,97844.16
2023-01-30T16:02:30.034Z,97835.80
2023-01-30T16:05:25.065Z,97833.01
2023-01-30T16:07:59.266Z,97833.62
2023-01-30T16:10:32.487Z,97816.52
2023-01-30T16:13:06.424Z,97820.56
2023-01-30T16:16:00.448Z,97825.94
2023-01-30T16:18:41.331Z,97835.89
2023-01-30T16:21:22.710Z,97817.27
2023-01-30T16:24:03.674Z,97833.55
2023-01-30T16:26:37.912Z,97830.90
2023-01-30T16:29:15.887Z,97832.49
2023-01-30T16:31:50.320Z,97832.49
2023-01-30T16:34:32.037Z,97819.64
2023-01-30T16:37:21.731Z,97831.83
2023-01-30T16:40:03.074Z,97828.92
2023-01-30T16:42:35.338Z,97827.46
2023-01-30T16:45:18.388Z,97823.44
2023-01-30T16:47:50.780Z,97818.65
2023-01-30T16:50:24.628Z,97827.19
2023-01-30T16:52:57.793Z,97809.98
2023-01-30T16:55:29.995Z,97819.33
2023-01-30T16:58:04.859Z,97814.16
2023-01-30T17:00:39.680Z,97824.42
2023-01-30T17:03:30.770Z,97811.44
2023-01-30T17:06:13.089Z,97823.55
2023-01-30T17:08:52.403Z,97817.45
2023-01-30T17:11:42.591Z,97813.95
2023-01-30T17:14:27.359Z,97809.70
2023-01-30T17:17:10.061Z,97822.48
2023-01-30T17:19:42.399Z,97819.73
2023-01-30T17:22:19.784Z,97814.34
2023-01-30T17:24:51.906Z,97825.82
2023-01-30T17:27:24.828Z,97818.38
2023-01-30T17:29:56.970Z,97819.91
2023-01-30T17:32:29.223Z,97823.55
2023-01-30T17:35:01.502Z,97821.71
2023-01-30T17:37:33.598Z,97817.25
2023-01-30T17:40:14.708Z,97824.37
2023-01-30T17:42:50.235Z,97816.61
2023-01-30T17:45:22.174Z,97821.86
2023-01-30T17:47:54.127Z,97829.54
2023-01-30T17:50:28.073Z,97825.36
2023-01-30T17:53:00.046Z,97828.86
2023-01-30T17:55:33.952Z,97831.38
2023-01-30T17:58:06.967Z,97830.84
2023-01-30T18:00:39.329Z,97836.09
2023-01-30T18:03:11.617Z,97844.83
2023-01-30T18:05:44.029Z,97830.98
2023-01-30T18:08:16.761Z,97838.73
2023-01-30T18:10:48.652Z,97829.25
2023-01-30T18:13:21.379Z,97836.16
2023-01-30T18:15:56.353Z,97836.90
2023-01-30T18:18:28.634Z,97830.23
2023-01-30T18:21:00.543Z,97836.30
2023-01-30T18:23:32.691Z,97833.78
2023-01-30T18:26:05.560Z,97829.31
2023-01-30T18:28:37.773Z,97809.98
2023-01-30T18:31:09.806Z,97829.01
2023-01-30T18:33:43.637Z,97822.38
2023-01-30T18:36:17.687Z,97826.56
2023-01-30T18:38:50.475Z,97829.01
2023-01-30T18:41:25.503Z,97817.92
2023-01-30T18:43:59.672Z,97823.09
2023-01-30T18:46:32.319Z,97830.84
2023-01-30T18:49:04.504Z,97836.09
2023-01-30T18:51:36.720Z,97836.30
2023-01-30T18:54:09.000Z,97838.13
2023-01-30T18:56:41.104Z,97823.38
2023-01-30T18:59:13.272Z,97825.06
2023-01-30T19:01:46.818Z,97834.77
2023-01-30T19:04:19.155Z,97828.98
2023-01-30T19:06:51.391Z,97828.85
2023-01-30T19:09:23.819Z,97826.34
2023-01-30T19:12:13.671Z,97823.14
2023-01-30T19:14:45.780Z,97822.30
2023-01-30T19:17:18.205Z,97816.45
2023-01-30T19:19:50.181Z,97819.84
2023-01-30T19:22:22.499Z,97816.27
2023-01-30T19:24:54.863Z,97816.38
2023-01-30T19:27:26.990Z,97820.84
2023-01-30T19:29:59.469Z,97821.89
2023-01-30T19:32:33.082Z,97817.20
2023-01-30T19:35:05.762Z,97810.73
2023-01-30T19:37:39.256Z,97820.91
2023-01-30T19:40:12.415Z,97813.59
2023-01-30T19:42:44.818Z,97817.03
2023-01-30T19:45:17.185Z,97824.06
2023-01-30T19:47:49.624Z,97822.27
2023-01-30T19:50:21.833Z,97823.32
2023-01-30T19:52:56.871Z,97826.75
2023-01-30T19:55:29.299Z,97830.09
2023-01-30T19:58:01.344Z,97822.70
2023-01-30T20:00:35.701Z,97830.73
2023-01-30T20:03:08.255Z,97826.68
2023-01-30T20:05:44.004Z,97823.96
2023-01-30T20:08:31.415Z,97834.73
2023-01-30T20:10:49.920Z,97832.34
2023-01-30T20:13:22.210Z,97826.56
2023-01-30T20:15:55.218Z,97831.80
2023-01-30T20:18:27.439Z,97829.37
2023-01-30T20:21:00.980Z,97819.11
2023-01-30T20:23:33.157Z,97819.24
2023-01-30T20:26:09.835Z,97831.11
2023-01-30T20:28:42.119Z,97828.52
2023-01-30T20:31:16.249Z,97825.25
2023-01-30T20:33:48.788Z,97837.37
2023-01-30T20:36:22.294Z,97827.13
2023-01-30T20:38:55.816Z,97828.78
2023-01-30T20:41:28.801Z,97823.42
2023-01-30T20:44:01.513Z,97822.67
2023-01-30T20:46:42.722Z,97820.91
2023-01-30T20:49:17.627Z,97820.09
2023-01-30T20:51:51.742Z,97820.16
2023-01-30T20:54:24.137Z,97829.70
2023-01-30T20:56:57.193Z,97815.48
2023-01-30T20:59:29.377Z,97820.42
2023-01-30T21:02:02.004Z,97817.09
2023-01-30T21:04:34.502Z,97812.91
2023-01-30T21:07:06.481Z,97817.70
2023-01-30T21:09:38.473Z,97813.66
2023-01-30T21:12:11.772Z,97823.30
2023-01-30T21:14:43.802Z,97817.28
2023-01-30T21:17:16.771Z,97827.61
2023-01-30T21:19:48.752Z,97828.45
2023-01-30T21:22:20.870Z,97824.11
2023-01-30T21:24:52.968Z,97830.31
2023-01-30T21:27:25.057Z,97826.06
2023-01-30T21:29:56.953Z,97827.83
2023-01-30T21:32:28.960Z,97826.20
2023-01-30T21:35:01.101Z,97835.58
2023-01-30T21:37:51.093Z,97840.87
2023-01-30T21:40:41.156Z,97824.27
2023-01-30T21:43:16.166Z,97818.33
2023-01-30T21:45:48.067Z,97818.26
2023-01-30T21:48:20.259Z,97829.44
2023-01-30T21:50:52.210Z,97820.09
2023-01-30T21:53:24.188Z,97824.34
2023-01-30T21:55:56.870Z,97815.81
2023-01-30T21:58:34.432Z,97830.55
2023-01-30T22:01:07.990Z,97823.55
2023-01-30T22:03:40.136Z,97829.69
2023-01-30T22:06:13.193Z,97822.80
2023-01-30T22:08:45.245Z,97831.36
2023-01-30T22:11:21.671Z,97824.59
2023-01-30T22:13:54.953Z,97829.82
2023-01-30T22:16:29.713Z,97827.17
2023-01-30T22:19:04.482Z,97834.73
2023-01-30T22:21:40.084Z,97830.55
2023-01-30T22:24:12.377Z,97830.61
2023-01-30T22:26:44.706Z,97825.38
2023-01-30T22:29:18.225Z,97827.96
2023-01-30T22:31:50.234Z,97839.20
2023-01-30T22:34:22.737Z,97832.34
2023-01-30T22:36:54.933Z,97827.96
2023-01-30T22:39:27.050Z,97833.25
2023-01-30T22:41:59.274Z,97824.75
2023-01-30T22:44:31.708Z,97828.16
2023-01-30T22:47:03.819Z,97827.34
2023-01-30T22:49:35.870Z,97824.81
2023-01-30T22:52:08.170Z,97839.20
2023-01-30T22:54:40.641Z,97825.57
2023-01-30T22:57:12.599Z,97828.09
2023-01-30T22:59:44.544Z,97823.84
2023-01-30T23:02:16.585Z,97828.09
2023-01-30T23:04:50.561Z,97836.75
2023-01-30T23:07:23.065Z,97834.98
2023-01-30T23:09:55.074Z,97834.98
2023-01-30T23:12:44.761Z,97834.16
2023-01-30T23:15:17.118Z,97834.04
2023-01-30T23:18:07.138Z,97834.79
2023-01-30T23:20:39.156Z,97829.56
2023-01-30T23:23:11.183Z,97831.52
2023-01-30T23:25:43.559Z,97839.20
2023-01-30T23:28:15.545Z,97826.20
2023-01-30T23:30:47.654Z,97822.92
2023-01-30T23:33:19.755Z,97822.99
2023-01-30T23:35:51.609Z,97829.00
2023-01-30T23:38:24.300Z,97835.20
2023-01-30T23:40:57.810Z,97834.30
2023-01-30T23:43:31.112Z,97829.13
2023-01-30T23:46:26.853Z,97833.54
2023-01-30T23:49:00.871Z,97824.81
2023-01-30T23:51:33.517Z,97833.60
2023-01-30T23:54:06.006Z,97827.96
2023-01-30T23:56:40.388Z,97826.61
2023-01-30T23:59:12.895Z,97825.92
